Tulalip, Washington
Current Conditions -  °F | °C
As of 8:35 AM on Wednesday 22 Oct 2014 (Local Time) from KAWO Reporting Station
Overcast Overcast  
Wind Chill: 55°   Ceiling: 3100
Heat Index: 55°   Visibility: 10mi
Dew Point: 50°   Wind: 18mph
Humidity: 82%   Direction: 140°SE
Pressure: 29.7"   Gusts: NA
Location:  48.0955°N, 122.235°W
Report Text: KAWO 221535Z AUTO 14016KT 10SM FEW022 BKN031 OVC120 13/10 A2970 RMK AO1
Loading
Personal Weather Stations






























Interactive Weather Map
Tropical Storm Tracking
New forecast layout! Learn more

10-Day Weather Forecast

Advertisements
Track Severe Weather on mobile